sensor_id;sensor_type;location;lat;lon;timestamp;pressure;altitude;pressure_sealevel;temperature;humidity
23574;BME280;11965;53.640;10.050;2022-10-16T00:00:31;100726.69;;;12.81;100.00
23574;BME280;11965;53.640;10.050;2022-10-16T00:02:57;100727.13;;;12.71;100.00
23574;BME280;11965;53.640;10.050;2022-10-16T00:05:23;100738.44;;;12.70;100.00
23574;BME280;11965;53.640;10.050;2022-10-16T00:07:49;100731.19;;;12.69;100.00
23574;BME280;11965;53.640;10.050;2022-10-16T00:10:15;100736.97;;;12.74;100.00
23574;BME280;11965;53.640;10.050;2022-10-16T00:12:40;100733.97;;;12.69;100.00
23574;BME280;11965;53.640;10.050;2022-10-16T00:15:06;100718.97;;;12.56;100.00
23574;BME280;11965;53.640;10.050;2022-10-16T00:17:32;100733.53;;;12.72;100.00
23574;BME280;11965;53.640;10.050;2022-10-16T00:19:58;100748.50;;;12.64;100.00
23574;BME280;11965;53.640;10.050;2022-10-16T00:22:23;100733.09;;;12.62;100.00
23574;BME280;11965;53.640;10.050;2022-10-16T00:24:49;100735.44;;;12.58;100.00
23574;BME280;11965;53.640;10.050;2022-10-16T00:27:15;100731.81;;;12.64;100.00
23574;BME280;11965;53.640;10.050;2022-10-16T00:29:42;100734.38;;;12.59;100.00
23574;BME280;11965;53.640;10.050;2022-10-16T00:32:08;100725.38;;;12.50;100.00
23574;BME280;11965;53.640;10.050;2022-10-16T00:34:34;100712.09;;;12.39;100.00
23574;BME280;11965;53.640;10.050;2022-10-16T00:37:00;100744.63;;;12.58;100.00
23574;BME280;11965;53.640;10.050;2022-10-16T00:39:25;100737.38;;;12.57;100.00
23574;BME280;11965;53.640;10.050;2022-10-16T00:41:51;100752.13;;;12.65;100.00
23574;BME280;11965;53.640;10.050;2022-10-16T00:47:18;100749.56;;;12.63;100.00
23574;BME280;11965;53.640;10.050;2022-10-16T00:49:46;100755.16;;;12.76;100.00
23574;BME280;11965;53.640;10.050;2022-10-16T00:52:11;100753.47;;;12.82;100.00
23574;BME280;11965;53.640;10.050;2022-10-16T00:54:38;100755.56;;;12.67;100.00
23574;BME280;11965;53.640;10.050;2022-10-16T00:57:06;100748.31;;;12.66;100.00
23574;BME280;11965;53.640;10.050;2022-10-16T00:59:36;100737.16;;;12.52;100.00
23574;BME280;11965;53.640;10.050;2022-10-16T01:02:03;100748.47;;;12.51;100.00
23574;BME280;11965;53.640;10.050;2022-10-16T01:04:35;100749.53;;;12.50;100.00
23574;BME280;11965;53.640;10.050;2022-10-16T01:12:51;100752.06;;;12.38;100.00
23574;BME280;11965;53.640;10.050;2022-10-16T01:15:33;100774.53;;;12.43;100.00
23574;BME280;11965;53.640;10.050;2022-10-16T01:23:20;100774.56;;;12.56;100.00
23574;BME280;11965;53.640;10.050;2022-10-16T01:29:21;100773.25;;;12.46;100.00
23574;BME280;11965;53.640;10.050;2022-10-16T01:31:59;100773.25;;;12.46;100.00
23574;BME280;11965;53.640;10.050;2022-10-16T01:37:09;100784.75;;;12.29;100.00
23574;BME280;11965;53.640;10.050;2022-10-16T01:39:41;100784.97;;;12.28;100.00
23574;BME280;11965;53.640;10.050;2022-10-16T01:42:18;100775.13;;;12.32;100.00
23574;BME280;11965;53.640;10.050;2022-10-16T01:44:48;100771.44;;;12.18;100.00
23574;BME280;11965;53.640;10.050;2022-10-16T01:47:18;100780.25;;;12.28;100.00
23574;BME280;11965;53.640;10.050;2022-10-16T01:49:47;100779.88;;;12.45;100.00
23574;BME280;11965;53.640;10.050;2022-10-16T01:52:17;100775.31;;;12.30;100.00
23574;BME280;11965;53.640;10.050;2022-10-16T01:54:49;100757.19;;;12.41;100.00
23574;BME280;11965;53.640;10.050;2022-10-16T01:57:18;100768.53;;;12.40;100.00
23574;BME280;11965;53.640;10.050;2022-10-16T01:59:48;100781.31;;;12.27;100.00
23574;BME280;11965;53.640;10.050;2022-10-16T02:02:18;100785.16;;;12.26;100.00
23574;BME280;11965;53.640;10.050;2022-10-16T02:04:52;100780.44;;;12.20;100.00
23574;BME280;11965;53.640;10.050;2022-10-16T02:07:19;100785.16;;;12.26;100.00
23574;BME280;11965;53.640;10.050;2022-10-16T02:09:45;100786.00;;;12.20;100.00
23574;BME280;11965;53.640;10.050;2022-10-16T02:12:26;100784.50;;;12.18;100.00
23574;BME280;11965;53.640;10.050;2022-10-16T02:14:52;100782.97;;;12.15;100.00
23574;BME280;11965;53.640;10.050;2022-10-16T02:17:19;100766.50;;;12.13;100.00
23574;BME280;11965;53.640;10.050;2022-10-16T02:19:48;100787.09;;;12.26;100.00
23574;BME280;11965;53.640;10.050;2022-10-16T02:22:32;100788.59;;;12.28;100.00
23574;BME280;11965;53.640;10.050;2022-10-16T02:27:55;100785.16;;;12.26;100.00
23574;BME280;11965;53.640;10.050;2022-10-16T02:30:31;100783.41;;;12.19;100.00
23574;BME280;11965;53.640;10.050;2022-10-16T02:33:02;100783.84;;;12.22;100.00
23574;BME280;11965;53.640;10.050;2022-10-16T02:35:31;100788.13;;;12.18;100.00
23574;BME280;11965;53.640;10.050;2022-10-16T02:37:58;100782.97;;;12.15;100.00
23574;BME280;11965;53.640;10.050;2022-10-16T02:40:25;100765.34;;;11.94;100.00
23574;BME280;11965;53.640;10.050;2022-10-16T02:42:53;100790.25;;;12.16;100.00
23574;BME280;11965;53.640;10.050;2022-10-16T02:45:20;100787.28;;;12.18;100.00
23574;BME280;11965;53.640;10.050;2022-10-16T02:47:46;100790.59;;;12.00;100.00
23574;BME280;11965;53.640;10.050;2022-10-16T02:50:12;100779.47;;;12.00;100.00
23574;BME280;11965;53.640;10.050;2022-10-16T02:52:38;100791.03;;;12.03;100.00
23574;BME280;11965;53.640;10.050;2022-10-16T02:55:04;100789.34;;;12.09;100.00
23574;BME280;11965;53.640;10.050;2022-10-16T02:57:29;100792.53;;;12.06;100.00
23574;BME280;11965;53.640;10.050;2022-10-16T02:59:56;100788.25;;;12.03;100.00
23574;BME280;11965;53.640;10.050;2022-10-16T03:02:22;100791.03;;;12.03;100.00
23574;BME280;11965;53.640;10.050;2022-10-16T03:04:47;100781.59;;;11.98;100.00
23574;BME280;11965;53.640;10.050;2022-10-16T03:07:13;100800.56;;;11.87;100.00
23574;BME280;11965;53.640;10.050;2022-10-16T03:09:38;100795.75;;;11.75;100.00
23574;BME280;11965;53.640;10.050;2022-10-16T03:12:04;100772.69;;;11.74;100.00
23574;BME280;11965;53.640;10.050;2022-10-16T03:14:30;100785.91;;;11.72;100.00
23574;BME280;11965;53.640;10.050;2022-10-16T03:16:55;100788.03;;;11.70;100.00
23574;BME280;11965;53.640;10.050;2022-10-16T03:19:21;100782.22;;;11.58;100.00
23574;BME280;11965;53.640;10.050;2022-10-16T03:21:46;100785.16;;;11.57;100.00
23574;BME280;11965;53.640;10.050;2022-10-16T03:24:12;100766.31;;;11.45;100.00
23574;BME280;11965;53.640;10.050;2022-10-16T03:26:38;100786.66;;;11.53;100.00
23574;BME280;11965;53.640;10.050;2022-10-16T03:29:03;100785.31;;;11.48;100.00
23574;BME280;11965;53.640;10.050;2022-10-16T03:31:30;100787.66;;;11.45;100.00
23574;BME280;11965;53.640;10.050;2022-10-16T03:33:56;100787.00;;;11.43;100.00
23574;BME280;11965;53.640;10.050;2022-10-16T03:36:21;100787.00;;;11.43;100.00
23574;BME280;11965;53.640;10.050;2022-10-16T03:38:47;100792.53;;;11.43;100.00
23574;BME280;11965;53.640;10.050;2022-10-16T03:41:13;100788.50;;;11.45;100.00
23574;BME280;11965;53.640;10.050;2022-10-16T03:43:38;100792.81;;;11.48;100.00
23574;BME280;11965;53.640;10.050;2022-10-16T03:46:04;100790.69;;;11.50;100.00
23574;BME280;11965;53.640;10.050;2022-10-16T03:48:30;100800.38;;;11.61;100.00
23574;BME280;11965;53.640;10.050;2022-10-16T03:50:56;100795.25;;;11.64;100.00
23574;BME280;11965;53.640;10.050;2022-10-16T03:53:21;100789.66;;;11.58;100.00
23574;BME280;11965;53.640;10.050;2022-10-16T03:55:47;100788.44;;;11.67;100.00
23574;BME280;11965;53.640;10.050;2022-10-16T03:58:12;100802.09;;;11.68;100.00
23574;BME280;11965;53.640;10.050;2022-10-16T04:00:42;100796.19;;;11.78;100.00
23574;BME280;11965;53.640;10.050;2022-10-16T04:03:08;100803.56;;;11.86;100.00
23574;BME280;11965;53.640;10.050;2022-10-16T04:05:34;100804.09;;;11.75;100.00
23574;BME280;11965;53.640;10.050;2022-10-16T04:08:00;100787.75;;;11.58;100.00
23574;BME280;11965;53.640;10.050;2022-10-16T04:10:25;100824.38;;;11.75;100.00
23574;BME280;11965;53.640;10.050;2022-10-16T04:12:51;100834.78;;;11.66;100.00
23574;BME280;11965;53.640;10.050;2022-10-16T04:15:16;100830.75;;;11.69;100.00
23574;BME280;11965;53.640;10.050;2022-10-16T04:17:42;100839.78;;;11.78;100.00
23574;BME280;11965;53.640;10.050;2022-10-16T04:20:08;100825.03;;;11.77;100.00
23574;BME280;11965;53.640;10.050;2022-10-16T04:22:34;100841.03;;;11.75;100.00
23574;BME280;11965;53.640;10.050;2022-10-16T04:24:59;100840.38;;;11.73;100.00
23574;BME280;11965;53.640;10.050;2022-10-16T04:27:25;100837.03;;;11.84;100.00
23574;BME280;11965;53.640;10.050;2022-10-16T04:29:51;100841.03;;;11.75;100.00
23574;BME280;11965;53.640;10.050;2022-10-16T04:32:16;100844.66;;;11.76;100.00
23574;BME280;11965;53.640;10.050;2022-10-16T04:34:42;100844.22;;;11.72;100.00
23574;BME280;11965;53.640;10.050;2022-10-16T04:37:07;100839.72;;;11.71;100.00
23574;BME280;11965;53.640;10.050;2022-10-16T04:39:33;100828.16;;;11.67;100.00
23574;BME280;11965;53.640;10.050;2022-10-16T04:41:58;100836.16;;;11.77;100.00
23574;BME280;11965;53.640;10.050;2022-10-16T04:44:24;100852.47;;;11.87;100.00
23574;BME280;11965;53.640;10.050;2022-10-16T04:46:50;100861.16;;;11.77;100.00
23574;BME280;11965;53.640;10.050;2022-10-16T04:49:16;100835.72;;;11.52;100.00
23574;BME280;11965;53.640;10.050;2022-10-16T04:51:42;100858.25;;;11.64;100.00
23574;BME280;11965;53.640;10.050;2022-10-16T04:54:09;100863.34;;;11.60;100.00
23574;BME280;11965;53.640;10.050;2022-10-16T04:56:35;100866.53;;;11.57;100.00
23574;BME280;11965;53.640;10.050;2022-10-16T04:59:08;100868.41;;;11.50;100.00
23574;BME280;11965;53.640;10.050;2022-10-16T05:01:34;100872.44;;;11.47;100.00
23574;BME280;11965;53.640;10.050;2022-10-16T05:03:59;100868.41;;;11.50;100.00
23574;BME280;11965;53.640;10.050;2022-10-16T05:06:25;100864.47;;;11.44;100.00
23574;BME280;11965;53.640;10.050;2022-10-16T05:08:50;100869.81;;;11.39;100.00
23574;BME280;11965;53.640;10.050;2022-10-16T05:11:16;100872.44;;;11.47;100.00
23574;BME280;11965;53.640;10.050;2022-10-16T05:13:42;100875.69;;;11.58;100.00
23574;BME280;11965;53.640;10.050;2022-10-16T05:16:07;100878.69;;;11.56;100.00
23574;BME280;11965;53.640;10.050;2022-10-16T05:18:33;100883.66;;;11.61;100.00
23574;BME280;11965;53.640;10.050;2022-10-16T05:20:58;100890.41;;;11.52;100.00
23574;BME280;11965;53.640;10.050;2022-10-16T05:23:24;100891.06;;;11.54;100.00
23574;BME280;11965;53.640;10.050;2022-10-16T05:25:55;100871.50;;;11.40;100.00
23574;BME280;11965;53.640;10.050;2022-10-16T05:28:20;100887.63;;;11.52;100.00
23574;BME280;11965;53.640;10.050;2022-10-16T05:30:46;100888.06;;;11.55;100.00
23574;BME280;11965;53.640;10.050;2022-10-16T05:33:12;100879.03;;;11.46;100.00
23574;BME280;11965;53.640;10.050;2022-10-16T05:35:37;100895.00;;;11.44;100.00
23574;BME280;11965;53.640;10.050;2022-10-16T05:38:03;100888.81;;;11.42;100.00
23574;BME280;11965;53.640;10.050;2022-10-16T05:40:28;100894.44;;;11.49;100.00
23574;BME280;11965;53.640;10.050;2022-10-16T05:42:55;100891.97;;;11.61;100.00
23574;BME280;11965;53.640;10.050;2022-10-16T05:45:21;100892.47;;;11.71;100.00
23574;BME280;11965;53.640;10.050;2022-10-16T05:47:46;100899.75;;;11.72;100.00
23574;BME280;11965;53.640;10.050;2022-10-16T05:50:12;100896.44;;;11.83;100.00
23574;BME280;11965;53.640;10.050;2022-10-16T05:52:37;100895.31;;;12.06;100.00
23574;BME280;11965;53.640;10.050;2022-10-16T05:55:03;100872.22;;;11.99;100.00
23574;BME280;11965;53.640;10.050;2022-10-16T05:57:29;100887.63;;;12.01;100.00
23574;BME280;11965;53.640;10.050;2022-10-16T05:59:55;100905.19;;;12.08;100.00
23574;BME280;11965;53.640;10.050;2022-10-16T06:02:21;100904.91;;;12.03;100.00
23574;BME280;11965;53.640;10.050;2022-10-16T06:04:46;100900.53;;;11.87;100.00
23574;BME280;11965;53.640;10.050;2022-10-16T06:07:12;100878.22;;;11.74;100.00
23574;BME280;11965;53.640;10.050;2022-10-16T06:09:37;100904.28;;;12.01;100.00
23574;BME280;11965;53.640;10.050;2022-10-16T06:12:03;100904.59;;;12.20;100.00
23574;BME280;11965;53.640;10.050;2022-10-16T06:14:29;100899.97;;;12.27;100.00
23574;BME280;11965;53.640;10.050;2022-10-16T06:16:54;100912.22;;;12.39;100.00
23574;BME280;11965;53.640;10.050;2022-10-16T06:19:20;100899.53;;;12.30;100.00
23574;BME280;11965;53.640;10.050;2022-10-16T06:21:46;100903.81;;;12.26;100.00
23574;BME280;11965;53.640;10.050;2022-10-16T06:24:12;100909.94;;;12.14;100.00
23574;BME280;11965;53.640;10.050;2022-10-16T06:26:37;100906.66;;;12.04;100.00
23574;BME280;11965;53.640;10.050;2022-10-16T06:29:04;100910.31;;;12.11;100.00
23574;BME280;11965;53.640;10.050;2022-10-16T06:31:30;100921.84;;;12.08;100.00
23574;BME280;11965;53.640;10.050;2022-10-16T06:33:59;100913.72;;;12.07;100.00
23574;BME280;11965;53.640;10.050;2022-10-16T06:36:25;100913.50;;;12.08;100.00
23574;BME280;11965;53.640;10.050;2022-10-16T06:38:51;100928.06;;;12.10;100.00
23574;BME280;11965;53.640;10.050;2022-10-16T06:41:19;100936.22;;;12.12;100.00
23574;BME280;11965;53.640;10.050;2022-10-16T06:43:46;100930.19;;;12.08;100.00
23574;BME280;11965;53.640;10.050;2022-10-16T06:46:14;100927.81;;;12.05;100.00
23574;BME280;11965;53.640;10.050;2022-10-16T06:48:40;100927.81;;;12.05;100.00
23574;BME280;11965;53.640;10.050;2022-10-16T06:51:17;100941.91;;;12.04;100.00
23574;BME280;11965;53.640;10.050;2022-10-16T06:53:47;100944.06;;;12.08;100.00
23574;BME280;11965;53.640;10.050;2022-10-16T06:56:15;100960.81;;;12.15;100.00
23574;BME280;11965;53.640;10.050;2022-10-16T06:58:42;100966.16;;;12.16;100.00
23574;BME280;11965;53.640;10.050;2022-10-16T07:01:09;100944.16;;;12.22;100.00
23574;BME280;11965;53.640;10.050;2022-10-16T07:03:39;100958.50;;;12.53;100.00
23574;BME280;11965;53.640;10.050;2022-10-16T07:06:07;100942.22;;;12.50;100.00
23574;BME280;11965;53.640;10.050;2022-10-16T07:08:34;100968.66;;;12.74;100.00
23574;BME280;11965;53.640;10.050;2022-10-16T07:11:03;100952.69;;;12.90;100.00
23574;BME280;11965;53.640;10.050;2022-10-16T07:13:29;100976.78;;;13.24;100.00
23574;BME280;11965;53.640;10.050;2022-10-16T07:15:55;100973.41;;;13.29;100.00
23574;BME280;11965;53.640;10.050;2022-10-16T07:18:21;100944.84;;;13.13;100.00
23574;BME280;11965;53.640;10.050;2022-10-16T07:20:47;100983.53;;;13.50;100.00
23574;BME280;11965;53.640;10.050;2022-10-16T07:23:12;100956.56;;;13.63;100.00
23574;BME280;11965;53.640;10.050;2022-10-16T07:25:38;100971.97;;;13.59;100.00
23574;BME280;11965;53.640;10.050;2022-10-16T07:28:03;100988.28;;;13.62;100.00
23574;BME280;11965;53.640;10.050;2022-10-16T07:30:29;100991.25;;;13.54;100.00
23574;BME280;11965;53.640;10.050;2022-10-16T07:32:55;100995.75;;;13.55;100.00
23574;BME280;11965;53.640;10.050;2022-10-16T07:35:20;100991.66;;;13.51;100.00
23574;BME280;11965;53.640;10.050;2022-10-16T07:37:46;101008.59;;;13.56;100.00
23574;BME280;11965;53.640;10.050;2022-10-16T07:40:12;101017.59;;;13.58;100.00
23574;BME280;11965;53.640;10.050;2022-10-16T07:42:38;101021.50;;;13.70;100.00
23574;BME280;11965;53.640;10.050;2022-10-16T07:45:04;101010.78;;;13.81;100.00
23574;BME280;11965;53.640;10.050;2022-10-16T07:47:30;101003.03;;;13.69;100.00
23574;BME280;11965;53.640;10.050;2022-10-16T07:49:55;101011.44;;;13.89;100.00
23574;BME280;11965;53.640;10.050;2022-10-16T07:52:21;101019.16;;;14.07;100.00
23574;BME280;11965;53.640;10.050;2022-10-16T07:56:50;100988.72;;;14.12;100.00
23574;BME280;11965;53.640;10.050;2022-10-16T08:01:44;101026.69;;;14.27;100.00
23574;BME280;11965;53.640;10.050;2022-10-16T08:04:10;101028.63;;;14.53;100.00
23574;BME280;11965;53.640;10.050;2022-10-16T08:06:38;101036.97;;;14.46;100.00
23574;BME280;11965;53.640;10.050;2022-10-16T08:09:05;101022.19;;;14.19;100.00
23574;BME280;11965;53.640;10.050;2022-10-16T08:11:32;101042.97;;;14.36;100.00
23574;BME280;11965;53.640;10.050;2022-10-16T08:13:58;101031.63;;;14.38;100.00
23574;BME280;11965;53.640;10.050;2022-10-16T08:16:23;101039.75;;;14.40;100.00
23574;BME280;11965;53.640;10.050;2022-10-16T08:18:49;101044.50;;;14.32;100.00
23574;BME280;11965;53.640;10.050;2022-10-16T08:21:20;101047.91;;;14.34;100.00
23574;BME280;11965;53.640;10.050;2022-10-16T08:23:47;101047.25;;;14.39;100.00
23574;BME280;11965;53.640;10.050;2022-10-16T08:26:13;101041.47;;;14.41;100.00
23574;BME280;11965;53.640;10.050;2022-10-16T08:28:39;101042.75;;;14.45;100.00
23574;BME280;11965;53.640;10.050;2022-10-16T08:31:12;101038.03;;;14.25;100.00
23574;BME280;11965;53.640;10.050;2022-10-16T08:33:41;101042.34;;;14.28;100.00
23574;BME280;11965;53.640;10.050;2022-10-16T08:36:09;101060.78;;;14.35;100.00
23574;BME280;11965;53.640;10.050;2022-10-16T08:38:35;101050.47;;;14.36;100.00
23574;BME280;11965;53.640;10.050;2022-10-16T08:41:32;101041.25;;;14.42;100.00
23574;BME280;11965;53.640;10.050;2022-10-16T08:44:31;101052.84;;;14.39;100.00
23574;BME280;11965;53.640;10.050;2022-10-16T08:47:21;101052.63;;;14.34;100.00
23574;BME280;11965;53.640;10.050;2022-10-16T08:50:12;101057.78;;;14.30;100.00
23574;BME280;11965;53.640;10.050;2022-10-16T08:52:43;101053.06;;;14.24;100.00
23574;BME280;11965;53.640;10.050;2022-10-16T08:58:20;101066.53;;;14.07;100.00
23574;BME280;11965;53.640;10.050;2022-10-16T09:00:50;101047.50;;;14.24;100.00
23574;BME280;11965;53.640;10.050;2022-10-16T09:03:48;101070.03;;;14.63;100.00
23574;BME280;11965;53.640;10.050;2022-10-16T09:12:12;101089.03;;;15.12;98.23
23574;BME280;11965;53.640;10.050;2022-10-16T09:18:21;101087.53;;;15.16;96.10
23574;BME280;11965;53.640;10.050;2022-10-16T09:20:50;101085.47;;;15.50;96.88
23574;BME280;11965;53.640;10.050;2022-10-16T09:23:25;101083.09;;;15.54;94.90
23574;BME280;11965;53.640;10.050;2022-10-16T09:25:53;101078.56;;;15.59;94.25
23574;BME280;11965;53.640;10.050;2022-10-16T09:28:19;101113.56;;;15.62;92.96
23574;BME280;11965;53.640;10.050;2022-10-16T09:30:46;101084.19;;;15.46;94.25
23574;BME280;11965;53.640;10.050;2022-10-16T09:33:16;101095.13;;;15.54;93.44
23574;BME280;11965;53.640;10.050;2022-10-16T09:35:49;101104.84;;;15.38;96.18
23574;BME280;11965;53.640;10.050;2022-10-16T09:38:30;101108.13;;;15.29;95.91
23574;BME280;11965;53.640;10.050;2022-10-16T09:40:58;101106.44;;;15.21;99.28
23574;BME280;11965;53.640;10.050;2022-10-16T09:43:40;101106.84;;;15.24;96.54
23574;BME280;11965;53.640;10.050;2022-10-16T09:46:20;101101.44;;;15.30;95.19
23574;BME280;11965;53.640;10.050;2022-10-16T09:48:49;101101.16;;;15.51;89.30
23574;BME280;11965;53.640;10.050;2022-10-16T09:51:24;101097.00;;;15.74;89.38
23574;BME280;11965;53.640;10.050;2022-10-16T09:53:59;101105.09;;;15.82;89.80
23574;BME280;11965;53.640;10.050;2022-10-16T09:56:33;101095.94;;;15.75;85.69
23574;BME280;11965;53.640;10.050;2022-10-16T09:59:08;101114.97;;;15.91;86.05
23574;BME280;11965;53.640;10.050;2022-10-16T10:01:43;101125.66;;;16.01;90.12
23574;BME280;11965;53.640;10.050;2022-10-16T10:04:10;101127.13;;;16.10;88.17
23574;BME280;11965;53.640;10.050;2022-10-16T10:06:48;101139.81;;;16.06;86.73
23574;BME280;11965;53.640;10.050;2022-10-16T10:09:21;101133.34;;;16.12;83.84
23574;BME280;11965;53.640;10.050;2022-10-16T10:16:47;101147.59;;;16.35;85.98
23574;BME280;11965;53.640;10.050;2022-10-16T10:19:23;101140.09;;;16.29;84.67
23574;BME280;11965;53.640;10.050;2022-10-16T10:21:50;101149.63;;;16.22;85.70
23574;BME280;11965;53.640;10.050;2022-10-16T10:24:19;101147.22;;;16.25;85.03
23574;BME280;11965;53.640;10.050;2022-10-16T10:26:54;101143.34;;;16.26;83.40
23574;BME280;11965;53.640;10.050;2022-10-16T10:29:42;101143.91;;;16.42;85.99
23574;BME280;11965;53.640;10.050;2022-10-16T10:34:42;101150.06;;;16.19;86.06
23574;BME280;11965;53.640;10.050;2022-10-16T10:40:22;101163.84;;;16.20;89.59
23574;BME280;11965;53.640;10.050;2022-10-16T10:43:09;101142.97;;;16.23;86.19
23574;BME280;11965;53.640;10.050;2022-10-16T10:45:46;101144.59;;;16.30;84.12
23574;BME280;11965;53.640;10.050;2022-10-16T10:51:12;101164.53;;;16.72;80.58
23574;BME280;11965;53.640;10.050;2022-10-16T10:53:56;101166.13;;;16.93;80.47
23574;BME280;11965;53.640;10.050;2022-10-16T10:57:18;101150.69;;;17.09;76.04
23574;BME280;11965;53.640;10.050;2022-10-16T11:05:10;101160.47;;;16.68;77.41
23574;BME280;11965;53.640;10.050;2022-10-16T11:08:13;101167.66;;;16.57;77.05
23574;BME280;11965;53.640;10.050;2022-10-16T11:10:45;101151.97;;;16.56;76.33
23574;BME280;11965;53.640;10.050;2022-10-16T11:16:13;101152.03;;;16.75;78.63
23574;BME280;11965;53.640;10.050;2022-10-16T11:18:56;101191.00;;;16.76;73.83
23574;BME280;11965;53.640;10.050;2022-10-16T11:21:29;101149.84;;;16.52;76.23
23574;BME280;11965;53.640;10.050;2022-10-16T11:23:59;101179.09;;;16.88;75.26
23574;BME280;11965;53.640;10.050;2022-10-16T11:26:33;101175.47;;;16.81;74.69
23574;BME280;11965;53.640;10.050;2022-10-16T11:29:02;101163.81;;;16.84;74.89
23574;BME280;11965;53.640;10.050;2022-10-16T11:31:38;101149.16;;;16.56;73.05
23574;BME280;11965;53.640;10.050;2022-10-16T11:36:53;101198.34;;;17.28;72.81
23574;BME280;11965;53.640;10.050;2022-10-16T11:39:28;101210.28;;;17.16;69.17
23574;BME280;11965;53.640;10.050;2022-10-16T11:42:05;101202.75;;;17.17;70.44
23574;BME280;11965;53.640;10.050;2022-10-16T11:47:29;101214.25;;;17.27;70.51
23574;BME280;11965;53.640;10.050;2022-10-16T11:50:06;101204.28;;;17.13;70.06
23574;BME280;11965;53.640;10.050;2022-10-16T11:52:53;101211.38;;;17.15;70.54
23574;BME280;11965;53.640;10.050;2022-10-16T11:55:31;101207.41;;;17.23;68.42
23574;BME280;11965;53.640;10.050;2022-10-16T12:00:51;101231.16;;;16.95;70.16
23574;BME280;11965;53.640;10.050;2022-10-16T12:06:25;101230.53;;;16.93;68.43
23574;BME280;11965;53.640;10.050;2022-10-16T12:08:54;101229.84;;;16.98;66.14
23574;BME280;11965;53.640;10.050;2022-10-16T12:11:30;101232.00;;;16.96;69.87
23574;BME280;11965;53.640;10.050;2022-10-16T12:14:34;101243.56;;;17.06;67.11
23574;BME280;11965;53.640;10.050;2022-10-16T12:17:27;101244.72;;;16.92;66.83
23574;BME280;11965;53.640;10.050;2022-10-16T12:20:53;101258.09;;;16.90;66.43
23574;BME280;11965;53.640;10.050;2022-10-16T12:25:39;101226.22;;;17.16;64.13
23574;BME280;11965;53.640;10.050;2022-10-16T12:30:41;101262.53;;;17.29;63.95
23574;BME280;11965;53.640;10.050;2022-10-16T12:33:37;101274.72;;;17.41;68.01
23574;BME280;11965;53.640;10.050;2022-10-16T12:36:13;101274.66;;;17.23;63.88
23574;BME280;11965;53.640;10.050;2022-10-16T12:38:48;101269.38;;;17.08;66.30
23574;BME280;11965;53.640;10.050;2022-10-16T12:41:28;101278.81;;;17.14;67.56
23574;BME280;11965;53.640;10.050;2022-10-16T12:43:56;101283.53;;;17.20;64.92
23574;BME280;11965;53.640;10.050;2022-10-16T12:46:37;101265.91;;;17.13;67.40
23574;BME280;11965;53.640;10.050;2022-10-16T12:51:39;101285.91;;;17.41;64.09
23574;BME280;11965;53.640;10.050;2022-10-16T12:54:13;101284.66;;;17.12;62.64
23574;BME280;11965;53.640;10.050;2022-10-16T13:22:23;101322.41;;;17.03;62.62
23574;BME280;11965;53.640;10.050;2022-10-16T13:27:39;101320.41;;;17.17;63.97
23574;BME280;11965;53.640;10.050;2022-10-16T13:30:15;101313.63;;;17.25;62.69
23574;BME280;11965;53.640;10.050;2022-10-16T13:32:49;101341.25;;;17.46;60.10
23574;BME280;11965;53.640;10.050;2022-10-16T13:35:27;101336.41;;;17.85;59.99
23574;BME280;11965;53.640;10.050;2022-10-16T13:38:14;101352.56;;;18.08;59.24
23574;BME280;11965;53.640;10.050;2022-10-16T13:40:54;101355.91;;;17.98;58.03
23574;BME280;11965;53.640;10.050;2022-10-16T13:43:44;101342.16;;;17.65;61.53
23574;BME280;11965;53.640;10.050;2022-10-16T13:46:17;101349.56;;;17.59;59.33
23574;BME280;11965;53.640;10.050;2022-10-16T13:48:44;101340.22;;;17.40;61.59
23574;BME280;11965;53.640;10.050;2022-10-16T13:51:15;101373.06;;;17.33;64.66
23574;BME280;11965;53.640;10.050;2022-10-16T13:53:42;101349.66;;;17.21;61.97
23574;BME280;11965;53.640;10.050;2022-10-16T13:56:18;101365.28;;;17.35;62.96
23574;BME280;11965;53.640;10.050;2022-10-16T13:58:44;101355.31;;;17.14;62.13
23574;BME280;11965;53.640;10.050;2022-10-16T14:04:08;101371.69;;;16.72;67.65
23574;BME280;11965;53.640;10.050;2022-10-16T14:06:36;101399.25;;;16.82;65.55
23574;BME280;11965;53.640;10.050;2022-10-16T14:09:08;101398.59;;;16.80;67.56
23574;BME280;11965;53.640;10.050;2022-10-16T14:11:52;101388.81;;;16.96;63.59
23574;BME280;11965;53.640;10.050;2022-10-16T14:14:19;101383.03;;;16.84;61.52
23574;BME280;11965;53.640;10.050;2022-10-16T14:16:46;101373.78;;;16.90;63.24
23574;BME280;11965;53.640;10.050;2022-10-16T14:19:27;101404.97;;;16.94;64.76
23574;BME280;11965;53.640;10.050;2022-10-16T14:21:55;101387.59;;;16.78;63.17
23574;BME280;11965;53.640;10.050;2022-10-16T14:24:34;101400.78;;;16.65;66.60
23574;BME280;11965;53.640;10.050;2022-10-16T14:27:01;101408.13;;;16.59;65.92
23574;BME280;11965;53.640;10.050;2022-10-16T14:29:29;101418.88;;;16.62;64.60
23574;BME280;11965;53.640;10.050;2022-10-16T14:32:05;101412.41;;;16.62;66.02
23574;BME280;11965;53.640;10.050;2022-10-16T14:34:36;101422.31;;;16.64;65.25
23574;BME280;11965;53.640;10.050;2022-10-16T14:37:24;101438.22;;;16.77;63.72
23574;BME280;11965;53.640;10.050;2022-10-16T14:39:52;101444.81;;;16.96;64.52